Terminal Aerodrome Forecast
Issued by NWS

Home | Current Version | Previous Version | Text Only | Print | Product List | Glossary On
Versions: 1 2 3 4 5 6 7 8 9 10 11 12 13 14 15
000
FTUS43 KDTX 030533
TAFMBS
TAF
KMBS 030533Z 0306/0406 VRB04KT P6SM BKN150
     FM031400 14012KT 4SM -SN BKN035 OVC070
     FM031500 14012KT 1SM -SN BR OVC015
     FM031900 17013KT 1SM -SN BR OVC008
     FM032300 22014KT 1SM -FZDZ BR OVC007
     FM040200 26014KT P6SM OVC015=

USA.gov is the U.S. government's official web portal to all federal, state and local government web resources and services.